createdAt,value
2022-10-10T00:01:24.569Z,96.74
2022-10-10T00:07:02.537Z,96.45
2022-10-10T00:12:39.546Z,96.82
2022-10-10T00:18:17.547Z,96.22
2022-10-10T00:23:48.548Z,96.51
2022-10-10T00:29:25.518Z,96.40
2022-10-10T00:35:02.526Z,96.99
2022-10-10T00:40:41.534Z,96.75
2022-10-10T00:46:18.559Z,96.99
2022-10-10T00:51:56.537Z,96.66
2022-10-10T00:57:34.530Z,97.09
2022-10-10T01:03:11.503Z,96.58
2022-10-10T01:08:48.529Z,96.59
2022-10-10T01:14:42.509Z,96.84
2022-10-10T01:20:38.543Z,96.66
2022-10-10T01:26:28.515Z,96.59
2022-10-10T01:32:10.543Z,96.63
2022-10-10T01:37:55.526Z,96.83
2022-10-10T01:43:33.523Z,97.16
2022-10-10T01:49:12.550Z,97.12
2022-10-10T01:55:01.512Z,96.86
2022-10-10T02:00:38.569Z,97.64
2022-10-10T02:06:22.513Z,97.27
2022-10-10T02:12:05.748Z,97.47
2022-10-10T02:17:10.384Z,98.21
2022-10-10T02:22:15.499Z,98.30
2022-10-10T02:27:23.074Z,98.25
2022-10-10T02:32:33.003Z,98.34
2022-10-10T02:37:39.150Z,98.03
2022-10-10T02:42:43.562Z,98.63
2022-10-10T02:47:47.026Z,98.97
2022-10-10T02:52:52.317Z,98.76
2022-10-10T02:57:55.892Z,99.11
2022-10-10T03:09:24.065Z,99.56
2022-10-10T03:14:27.415Z,99.42
2022-10-10T03:19:31.012Z,99.65
2022-10-10T03:24:35.824Z,99.71
2022-10-10T03:29:39.209Z,99.46
2022-10-10T03:34:42.582Z,100.00
2022-10-10T03:39:47.412Z,100.00
2022-10-10T03:44:50.755Z,100.00
2022-10-10T03:49:54.088Z,100.00
2022-10-10T03:54:58.789Z,100.00
2022-10-10T04:00:02.406Z,100.00
2022-10-10T04:05:09.588Z,100.00
2022-10-10T04:10:14.284Z,100.00
2022-10-10T04:15:17.934Z,99.82
2022-10-10T04:20:21.405Z,99.72
2022-10-10T04:25:26.319Z,99.60
2022-10-10T04:30:33.478Z,99.40
2022-10-10T04:35:37.433Z,98.89
2022-10-10T04:40:42.203Z,98.83
2022-10-10T04:45:46.851Z,98.85
2022-10-10T04:50:53.194Z,97.90
2022-10-10T04:55:58.126Z,97.60
2022-10-10T05:01:01.692Z,97.64
2022-10-10T05:06:05.152Z,97.55
2022-10-10T05:11:09.856Z,97.44
2022-10-10T05:16:13.270Z,96.52
2022-10-10T05:21:16.781Z,96.05
2022-10-10T05:26:21.662Z,95.31
2022-10-10T05:31:25.017Z,95.00
2022-10-10T05:36:28.538Z,95.08
2022-10-10T05:41:33.311Z,94.15
2022-10-10T05:46:36.642Z,94.13
2022-10-10T05:51:40.041Z,93.08
2022-10-10T05:56:44.920Z,92.97
2022-10-10T06:01:48.249Z,92.64
2022-10-10T06:06:51.688Z,91.78
2022-10-10T06:11:56.408Z,90.79
2022-10-10T06:16:59.721Z,89.85
2022-10-10T06:22:03.239Z,89.07
2022-10-10T06:27:07.951Z,88.69
2022-10-10T06:32:11.341Z,87.18
2022-10-10T06:37:14.948Z,86.02
2022-10-10T06:42:19.694Z,82.77
2022-10-10T06:47:24.834Z,64.53
2022-10-10T06:52:28.187Z,55.14
2022-10-10T06:57:32.933Z,52.23
2022-10-10T07:02:40.724Z,48.55
2022-10-10T07:07:44.271Z,43.25
2022-10-10T07:12:49.026Z,41.54
2022-10-10T07:17:58.178Z,37.51
2022-10-10T07:23:02.327Z,37.37
2022-10-10T07:28:07.553Z,42.60
2022-10-10T07:33:11.041Z,41.67
2022-10-10T07:38:14.432Z,41.00
2022-10-10T07:43:19.142Z,42.49
2022-10-10T07:48:22.645Z,47.41
2022-10-10T07:53:26.286Z,49.11
2022-10-10T07:58:30.998Z,47.47
2022-10-10T08:03:34.409Z,46.09
2022-10-10T08:08:48.576Z,44.86
2022-10-10T08:13:55.427Z,44.71
2022-10-10T08:18:58.903Z,46.79
2022-10-10T08:24:02.455Z,46.94
2022-10-10T08:29:07.281Z,48.26
2022-10-10T08:34:10.652Z,48.15
2022-10-10T08:39:14.110Z,49.15
2022-10-10T08:44:24.193Z,48.22
2022-10-10T08:49:34.283Z,47.33
2022-10-10T08:54:40.506Z,47.95
2022-10-10T08:59:45.316Z,47.00
2022-10-10T09:04:48.691Z,46.04
2022-10-10T09:10:00.207Z,46.36
2022-10-10T09:15:16.068Z,47.22
2022-10-10T09:20:36.812Z,46.25
2022-10-10T09:25:47.810Z,45.67
2022-10-10T09:30:58.142Z,44.75
2022-10-10T09:36:06.670Z,43.84
2022-10-10T09:41:16.193Z,42.68
2022-10-10T09:46:20.925Z,43.36
2022-10-10T09:51:24.455Z,43.23
2022-10-10T09:56:30.426Z,42.16
2022-10-10T10:01:35.214Z,42.96
2022-10-10T10:06:44.498Z,41.36
2022-10-10T10:11:56.698Z,41.61
2022-10-10T10:17:09.752Z,42.32
2022-10-10T10:22:31.227Z,41.58
2022-10-10T10:27:34.938Z,42.25
2022-10-10T10:32:49.861Z,40.87
2022-10-10T10:38:13.237Z,39.91
2022-10-10T10:43:47.672Z,39.74
2022-10-10T10:49:02.302Z,39.91
2022-10-10T10:54:29.949Z,41.10
2022-10-10T11:00:22.484Z,39.95
2022-10-10T11:05:41.257Z,39.34
2022-10-10T11:10:54.319Z,39.91
2022-10-10T11:16:07.495Z,38.78
2022-10-10T11:21:19.369Z,39.27
2022-10-10T11:26:27.710Z,40.31
2022-10-10T11:31:37.249Z,38.98
2022-10-10T11:36:46.863Z,40.62
2022-10-10T11:41:52.665Z,40.13
2022-10-10T11:47:03.022Z,38.84
2022-10-10T11:52:33.663Z,37.88
2022-10-10T11:57:44.549Z,38.99
2022-10-10T12:02:48.848Z,39.26
2022-10-10T12:08:08.506Z,39.41
2022-10-10T12:13:20.416Z,39.39
2022-10-10T12:18:26.752Z,39.35
2022-10-10T12:23:32.836Z,39.79
2022-10-10T12:28:38.356Z,40.17
2022-10-10T12:34:06.856Z,40.29
2022-10-10T12:39:35.925Z,39.83
2022-10-10T12:44:47.254Z,39.69
2022-10-10T12:49:51.476Z,39.87
2022-10-10T12:55:07.033Z,39.79
2022-10-10T13:00:18.011Z,39.03
2022-10-10T13:05:28.283Z,39.38
2022-10-10T13:10:34.020Z,39.21
2022-10-10T13:15:38.213Z,40.06
2022-10-10T13:20:41.970Z,39.98
2022-10-10T13:25:47.490Z,40.43
2022-10-10T13:30:52.366Z,40.76
2022-10-10T13:36:07.446Z,39.88
2022-10-10T13:41:12.545Z,39.66
2022-10-10T13:46:22.575Z,39.78
2022-10-10T13:51:40.675Z,39.09
2022-10-10T13:56:47.796Z,38.90
2022-10-10T14:02:01.271Z,38.12
2022-10-10T14:07:12.679Z,37.93
2022-10-10T14:12:24.463Z,38.77
2022-10-10T14:17:29.054Z,40.64
2022-10-10T14:22:32.418Z,41.23
2022-10-10T14:27:37.338Z,42.71
2022-10-10T14:32:40.797Z,43.47
2022-10-10T14:37:44.597Z,44.16
2022-10-10T14:42:49.915Z,43.94
2022-10-10T14:47:53.337Z,43.49
2022-10-10T14:52:56.763Z,44.54
2022-10-10T14:58:01.563Z,44.57
2022-10-10T15:03:05.369Z,44.65
2022-10-10T15:08:09.465Z,45.33
2022-10-10T15:13:14.945Z,46.12
2022-10-10T15:18:49.117Z,47.64
2022-10-10T15:23:41.689Z,48.60
2022-10-10T15:28:46.488Z,48.99
2022-10-10T15:33:49.895Z,50.16
2022-10-10T15:38:53.641Z,50.27
2022-10-10T15:44:01.455Z,48.50
2022-10-10T15:49:06.561Z,49.27
2022-10-10T15:54:10.099Z,47.97
2022-10-10T15:59:14.867Z,49.02
2022-10-10T16:04:18.275Z,49.02
2022-10-10T16:09:28.711Z,50.03
2022-10-10T16:14:34.340Z,49.65
2022-10-10T16:19:37.987Z,50.39
2022-10-10T16:24:42.756Z,50.80
2022-10-10T16:29:49.301Z,51.43
2022-10-10T16:34:55.095Z,52.71
2022-10-10T16:39:58.715Z,52.71
2022-10-10T16:45:03.521Z,53.73
2022-10-10T16:50:08.450Z,54.24
2022-10-10T16:55:12.330Z,56.21
2022-10-10T17:00:17.553Z,55.62
2022-10-10T17:05:20.907Z,57.34
2022-10-10T17:10:24.292Z,58.02
2022-10-10T17:15:29.023Z,58.80
2022-10-10T17:20:32.646Z,58.66
2022-10-10T17:25:36.129Z,60.11
2022-10-10T17:30:45.702Z,59.79
2022-10-10T17:35:50.916Z,60.12
2022-10-10T17:40:58.776Z,61.40
2022-10-10T17:46:29.011Z,62.31
2022-10-10T17:51:29.001Z,63.71
2022-10-10T17:56:33.066Z,63.72
2022-10-10T18:01:39.945Z,63.42
2022-10-10T18:06:43.384Z,63.58
2022-10-10T18:11:46.752Z,64.24
2022-10-10T18:16:51.497Z,64.30
2022-10-10T18:21:55.138Z,65.89
2022-10-10T18:26:58.698Z,66.09
2022-10-10T18:32:03.416Z,66.03
2022-10-10T18:37:07.223Z,67.43
2022-10-10T18:42:11.193Z,68.22
2022-10-10T18:47:15.913Z,68.86
2022-10-10T18:52:19.320Z,69.95
2022-10-10T18:57:22.666Z,70.63
2022-10-10T19:02:27.509Z,71.30
2022-10-10T19:07:31.326Z,72.05
2022-10-10T19:12:34.796Z,72.37
2022-10-10T19:17:39.491Z,74.26
2022-10-10T19:22:42.831Z,74.64
2022-10-10T19:27:46.266Z,74.68
2022-10-10T19:32:51.055Z,75.83
2022-10-10T19:37:54.483Z,76.27
2022-10-10T19:42:58.071Z,75.64
2022-10-10T19:48:02.847Z,78.60
2022-10-10T19:53:06.931Z,79.25
2022-10-10T19:58:12.052Z,78.72
2022-10-10T20:03:19.823Z,80.64
2022-10-10T20:08:23.198Z,81.39
2022-10-10T20:13:26.922Z,82.81
2022-10-10T20:18:33.501Z,83.20
2022-10-10T20:23:36.914Z,83.93
2022-10-10T20:28:40.673Z,84.64
2022-10-10T20:33:47.584Z,85.52
2022-10-10T20:38:55.021Z,86.03
2022-10-10T20:44:00.740Z,86.95
2022-10-10T20:49:07.333Z,87.88
2022-10-10T20:54:12.085Z,87.98
2022-10-10T20:59:15.461Z,87.11
2022-10-10T21:04:20.178Z,87.00
2022-10-10T21:09:23.547Z,87.31
2022-10-10T21:14:26.969Z,88.19
2022-10-10T21:19:57.453Z,89.56
2022-10-10T21:25:17.923Z,90.24
2022-10-10T21:30:22.032Z,89.78
2022-10-10T21:35:26.751Z,90.32
2022-10-10T21:40:30.093Z,90.86
2022-10-10T21:45:36.575Z,90.58
2022-10-10T21:50:41.786Z,89.70
2022-10-10T21:55:45.085Z,89.40
2022-10-10T22:00:48.512Z,88.08
2022-10-10T22:05:53.220Z,87.90
2022-10-10T22:11:01.246Z,86.38
2022-10-10T22:16:05.347Z,86.10
2022-10-10T22:21:13.024Z,86.28
2022-10-10T22:26:17.260Z,85.80
2022-10-10T22:31:30.030Z,85.44
2022-10-10T22:36:44.386Z,84.64
2022-10-10T22:41:47.724Z,85.30
2022-10-10T22:46:51.243Z,85.16
2022-10-10T22:51:56.016Z,84.70
2022-10-10T22:56:59.336Z,84.55
2022-10-10T23:02:02.623Z,84.35
2022-10-10T23:07:07.330Z,84.12
2022-10-10T23:12:10.636Z,84.31
2022-10-10T23:17:13.947Z,84.46
2022-10-10T23:22:18.622Z,84.00
2022-10-10T23:27:21.982Z,84.02
2022-10-10T23:32:29.250Z,84.33
2022-10-10T23:37:33.985Z,84.81
2022-10-10T23:42:37.399Z,84.59
2022-10-10T23:47:40.918Z,84.10
2022-10-10T23:52:45.577Z,84.03
2022-10-10T23:57:48.926Z,82.65
